Lemhi, ID

8:19 PM MDT on August 29, 2015 (GMT -0600)
Lemhi County | | Change Station
CLOSE
Current Station
Airport
Location: Salmon,
Elevation: 4045 ft
Nearby Weather Stations
Active Advisory: Fire Weather Warning

Elev 4045 ft 45.12 °N, 113.88 °W | Updated 4 minutes ago

Clear
Clear
79 °F
Feels Like 79 °F
N
8
Wind Variable Wind from SSW

Today
High -- | Low -- °F
--% Chance of Precip.
Yesterday
High -- | Low -- °F
Precip. -- in
6:52 AM 8:17 PM
Full, 100% visible
Pressure 29.77 in
Visibility 10.0 miles
Clouds Clear
Dew Point 39 °F
Humidity 24%
Rainfall 0.00 in
Snow Depth Not available.
UV 0 out of 12
Pollen 8.40 out of 12
Air Quality Not available.
Flu Activity Not available.
METAR KSMN 300215Z AUTO 20007KT 10SM CLR 26/04 A2977 RMK AO1
Pressure 29.77 in
Visibility 10.0 miles
Clouds Clear
Dew Point 39 °F
Humidity 24%
Rainfall 0.00 in
Snow Depth Not available.
UV 0 out of 12
Pollen 8.40 out of 12
Air Quality Not available.
Flu Activity Not available.
METAR KSMN 300215Z AUTO 20007KT 10SM CLR 26/04 A2977 RMK AO1

10-Day Weather Forecast

×

Almanac

Astronomy

Aug. 29, 2015 Rise Set
Actual Time
Civil Twilight
Nautical Twilight
Astronomical Twilight
Moon
Length of Visible Light
Length of Day
Tomorrow will be .
, % of the Moon is Illuminated

Today's Extremes

State Highs State Lows

Community

WunderPhotos

Upload Photos

1,850,849 photos uploaded!

WunderBlogs® & News

Nearby

Air Quality

  Air Quality AQ Index Pollutant
Not available.

Snow Depth

Station Depth Elevation

Earthquake Activity

City Distance Mag. Time & Date
Minimum magnitude displayed is 2.5.

Coastal Water Temperatures

Place Temperature

Stations

Nearby Weather Stations

Station Location Temp. Windchill Dew Point Humidity Wind Precip. Elev Updated Type
                   
Fire Weather Warning
Statement as of 2:39 PM MDT on August 29, 2015

... Red flag warning remains in effect until 10 PM MDT this
evening for gusty winds and low humidity for southeast Idaho fire
weather zones 475 and 476...

* affected area... fire weather zone 475. Fire weather zone 476.

* Wind... south to southwest winds of 20 to 30 mph with gusts up
to 45 mph at mid and upper slopes. 15 to 25 mph with gusts up
to 40 mph at lower elevations.

* Humidity... 15 to 25 percent.

* Thunderstorms... isolated thunderstorms are possible with
gusts over 45 mph.

* Impacts... any fires that develop will likely spread rapidly.
Outdoor burning is not recommended.

Precautionary/preparedness actions...

A red flag warning means that critical fire weather conditions
are either occurring now... or will shortly. Fires may experience
rapid rates of growth. Please advise the appropriate officials or
fire crews in the field of the red flag warning for portions of
southeast Idaho.